createdAt,value
2023-03-21T00:01:54.960Z,65.89
2023-03-21T00:04:33.182Z,65.93
2023-03-21T00:07:09.014Z,65.75
2023-03-21T00:09:39.897Z,65.93
2023-03-21T00:12:11.935Z,66.01
2023-03-21T00:14:43.506Z,66.16
2023-03-21T00:17:16.000Z,66.19
2023-03-21T00:19:46.889Z,66.07
2023-03-21T00:22:17.780Z,66.10
2023-03-21T00:24:48.780Z,65.99
2023-03-21T00:27:42.964Z,66.22
2023-03-21T00:30:14.206Z,65.99
2023-03-21T00:32:55.432Z,66.11
2023-03-21T00:35:57.864Z,66.13
2023-03-21T00:38:27.891Z,66.12
2023-03-21T00:41:04.722Z,66.18
2023-03-21T00:43:38.862Z,66.27
2023-03-21T00:46:10.226Z,66.13
2023-03-21T00:48:41.578Z,66.30
2023-03-21T00:51:26.182Z,66.16
2023-03-21T00:54:01.155Z,66.10
2023-03-21T00:56:31.185Z,66.35
2023-03-21T00:59:02.136Z,66.30
2023-03-21T01:01:33.204Z,66.24
2023-03-21T01:04:05.848Z,66.33
2023-03-21T01:06:40.284Z,66.24
2023-03-21T01:09:15.966Z,66.39
2023-03-21T01:11:47.679Z,66.51
2023-03-21T01:14:23.519Z,66.48
2023-03-21T01:16:55.487Z,66.55
2023-03-21T01:19:48.278Z,66.54
2023-03-21T01:22:19.501Z,66.47
2023-03-21T01:24:55.379Z,66.59
2023-03-21T01:27:29.466Z,66.49
2023-03-21T01:30:00.716Z,66.47
2023-03-21T01:32:31.625Z,66.59
2023-03-21T01:35:10.860Z,66.51
2023-03-21T01:37:46.533Z,66.72
2023-03-21T01:40:30.447Z,66.73
2023-03-21T01:43:32.980Z,66.65
2023-03-21T01:46:27.315Z,66.74
2023-03-21T01:49:14.135Z,66.63
2023-03-21T01:51:48.979Z,66.94
2023-03-21T01:54:27.207Z,66.60
2023-03-21T01:57:01.881Z,66.75
2023-03-21T01:59:42.312Z,66.99
2023-03-21T02:02:21.035Z,66.97
2023-03-21T02:05:07.210Z,66.98
2023-03-21T02:07:41.984Z,67.03
2023-03-21T02:10:16.197Z,67.05
2023-03-21T02:12:57.602Z,67.09
2023-03-21T02:15:37.099Z,67.30
2023-03-21T02:18:33.015Z,67.06
2023-03-21T02:21:54.431Z,67.04
2023-03-21T02:25:04.197Z,67.20
2023-03-21T02:27:43.833Z,67.07
2023-03-21T02:30:59.669Z,67.11
2023-03-21T02:33:51.209Z,67.10
2023-03-21T02:36:34.117Z,67.09
2023-03-21T02:39:13.695Z,67.29
2023-03-21T02:41:49.778Z,67.13
2023-03-21T02:44:39.448Z,67.22
2023-03-21T02:47:14.405Z,67.27
2023-03-21T02:49:53.546Z,67.28
2023-03-21T02:52:37.804Z,67.09
2023-03-21T02:55:15.835Z,67.19
2023-03-21T02:58:13.277Z,67.10
2023-03-21T03:00:55.612Z,67.10
2023-03-21T03:03:37.129Z,67.09
2023-03-21T03:06:21.343Z,67.15
2023-03-21T03:09:08.356Z,67.01
2023-03-21T03:11:42.978Z,67.26
2023-03-21T03:14:49.813Z,67.22
2023-03-21T03:17:37.450Z,67.52
2023-03-21T03:20:25.774Z,67.45
2023-03-21T03:23:04.721Z,67.13
2023-03-21T03:25:43.865Z,67.04
2023-03-21T03:28:23.792Z,67.10
2023-03-21T03:31:08.806Z,67.22
2023-03-21T03:33:59.440Z,67.18
2023-03-21T03:36:37.036Z,67.29
2023-03-21T03:39:33.075Z,67.34
2023-03-21T03:42:21.679Z,67.07
2023-03-21T03:45:02.571Z,67.24
2023-03-21T03:47:50.775Z,67.34
2023-03-21T03:50:33.054Z,67.40
2023-03-21T03:53:17.729Z,67.21
2023-03-21T03:55:51.367Z,67.28
2023-03-21T03:58:27.449Z,67.21
2023-03-21T04:01:04.669Z,67.53
2023-03-21T04:03:48.503Z,67.56
2023-03-21T04:06:22.280Z,67.55
2023-03-21T04:08:53.849Z,67.46
2023-03-21T04:11:25.386Z,67.42
2023-03-21T04:13:57.714Z,67.43
2023-03-21T04:16:32.839Z,67.26
2023-03-21T04:19:05.777Z,67.41
2023-03-21T04:21:37.354Z,67.39
2023-03-21T04:24:09.101Z,67.36
2023-03-21T04:26:40.802Z,67.58
2023-03-21T04:29:26.145Z,67.56
2023-03-21T04:32:27.028Z,67.41
2023-03-21T04:35:09.882Z,67.60
2023-03-21T04:37:41.683Z,67.52
2023-03-21T04:40:19.071Z,67.55
2023-03-21T04:42:51.462Z,67.67
2023-03-21T04:45:22.476Z,67.63
2023-03-21T04:47:53.557Z,67.61
2023-03-21T04:50:24.586Z,67.75
2023-03-21T04:52:55.555Z,67.81
2023-03-21T04:55:28.144Z,67.66
2023-03-21T04:57:59.822Z,67.82
2023-03-21T05:00:37.663Z,67.65
2023-03-21T05:03:10.245Z,67.70
2023-03-21T05:05:41.433Z,67.79
2023-03-21T05:08:13.305Z,67.76
2023-03-21T05:10:44.869Z,67.73
2023-03-21T05:13:16.097Z,67.60
2023-03-21T05:15:47.172Z,67.43
2023-03-21T05:18:25.050Z,67.48
2023-03-21T05:21:10.785Z,67.52
2023-03-21T05:23:42.249Z,67.59
2023-03-21T05:26:13.887Z,67.71
2023-03-21T05:29:00.494Z,67.48
2023-03-21T05:31:39.271Z,67.63
2023-03-21T05:34:14.529Z,67.59
2023-03-21T05:37:00.164Z,67.68
2023-03-21T05:39:43.110Z,67.52
2023-03-21T05:42:19.688Z,67.63
2023-03-21T05:44:51.138Z,67.82
2023-03-21T05:47:24.344Z,67.63
2023-03-21T05:49:59.942Z,67.70
2023-03-21T05:52:33.538Z,67.56
2023-03-21T05:55:12.636Z,67.68
2023-03-21T05:57:43.614Z,67.42
2023-03-21T06:00:24.470Z,67.52
2023-03-21T06:03:05.323Z,67.53
2023-03-21T06:05:49.212Z,67.54
2023-03-21T06:08:24.381Z,67.76
2023-03-21T06:10:55.887Z,67.64
2023-03-21T06:13:27.410Z,67.36
2023-03-21T06:15:59.243Z,67.47
2023-03-21T06:18:30.585Z,67.61
2023-03-21T06:21:20.784Z,67.50
2023-03-21T06:23:55.140Z,67.34
2023-03-21T06:26:30.595Z,67.41
2023-03-21T06:29:01.946Z,67.33
2023-03-21T06:31:34.370Z,67.39
2023-03-21T06:34:06.689Z,67.41
2023-03-21T06:36:40.036Z,67.15
2023-03-21T06:39:11.603Z,67.25
2023-03-21T06:41:43.968Z,67.19
2023-03-21T06:44:15.438Z,67.04
2023-03-21T06:46:53.624Z,67.08
2023-03-21T06:49:24.663Z,67.16
2023-03-21T06:51:55.828Z,67.33
2023-03-21T06:54:28.124Z,67.19
2023-03-21T06:57:05.398Z,67.06
2023-03-21T06:59:41.715Z,67.04
2023-03-21T07:02:15.401Z,66.95
2023-03-21T07:05:04.890Z,67.05
2023-03-21T07:07:36.030Z,66.98
2023-03-21T07:10:08.032Z,66.83
2023-03-21T07:12:49.943Z,67.04
2023-03-21T07:15:41.865Z,67.13
2023-03-21T07:18:12.935Z,66.75
2023-03-21T07:20:48.465Z,66.88
2023-03-21T07:23:20.493Z,66.86
2023-03-21T07:25:52.596Z,66.99
2023-03-21T07:28:31.476Z,67.22
2023-03-21T07:31:14.536Z,67.21
2023-03-21T07:33:46.361Z,67.12
2023-03-21T07:36:39.864Z,66.97
2023-03-21T07:39:21.114Z,66.83
2023-03-21T07:41:52.253Z,66.89
2023-03-21T07:44:38.460Z,67.08
2023-03-21T07:47:15.436Z,66.78
2023-03-21T07:52:42.229Z,66.32
2023-03-21T07:55:17.463Z,66.15
2023-03-21T07:57:57.926Z,65.94
2023-03-21T08:00:32.745Z,65.77
2023-03-21T08:03:12.247Z,65.66
2023-03-21T08:05:45.508Z,65.61
2023-03-21T08:08:18.968Z,65.44
2023-03-21T08:11:15.069Z,65.07
2023-03-21T08:13:50.421Z,64.79
2023-03-21T08:16:24.358Z,64.80
2023-03-21T08:18:57.663Z,64.65
2023-03-21T08:21:28.836Z,64.62
2023-03-21T08:23:59.829Z,64.42
2023-03-21T08:26:32.324Z,64.45
2023-03-21T08:29:04.043Z,64.69
2023-03-21T08:31:36.357Z,64.71
2023-03-21T08:34:07.742Z,64.78
2023-03-21T08:36:40.860Z,64.71
2023-03-21T08:40:07.165Z,64.51
2023-03-21T08:42:38.651Z,64.51
2023-03-21T08:45:14.558Z,64.46
2023-03-21T08:47:47.115Z,64.33
2023-03-21T08:50:23.554Z,64.07
2023-03-21T08:52:54.865Z,63.75
2023-03-21T08:55:25.910Z,63.37
2023-03-21T08:57:58.348Z,63.13
2023-03-21T09:00:29.830Z,62.81
2023-03-21T09:03:14.297Z,62.65
2023-03-21T09:05:54.173Z,62.55
2023-03-21T09:08:27.713Z,62.50
2023-03-21T09:10:59.195Z,62.59
2023-03-21T09:13:30.243Z,62.50
2023-03-21T09:16:01.499Z,62.46
2023-03-21T09:18:45.466Z,62.30
2023-03-21T09:21:28.441Z,62.18
2023-03-21T09:24:09.154Z,62.14
2023-03-21T09:26:41.853Z,62.19
2023-03-21T09:29:16.735Z,62.10
2023-03-21T09:31:48.458Z,62.06
2023-03-21T09:34:19.760Z,61.95
2023-03-21T09:36:56.754Z,61.89
2023-03-21T09:39:32.042Z,61.95
2023-03-21T09:42:26.825Z,61.88
2023-03-21T09:45:09.358Z,62.05
2023-03-21T09:47:53.454Z,61.98
2023-03-21T09:50:32.041Z,62.05
2023-03-21T09:53:07.256Z,62.23
2023-03-21T09:55:38.076Z,62.39
2023-03-21T09:58:29.221Z,62.23
2023-03-21T10:01:10.706Z,62.30
2023-03-21T10:03:44.025Z,62.20
2023-03-21T10:06:19.676Z,62.15
2023-03-21T10:08:52.613Z,62.02
2023-03-21T10:11:28.623Z,61.98
2023-03-21T10:14:04.994Z,62.18
2023-03-21T10:16:40.954Z,62.44
2023-03-21T10:19:18.154Z,62.10
2023-03-21T10:22:02.160Z,62.20
2023-03-21T10:24:36.386Z,62.43
2023-03-21T10:27:08.342Z,62.70
2023-03-21T10:29:44.835Z,63.21
2023-03-21T10:32:23.015Z,63.50
2023-03-21T10:37:36.585Z,63.51
2023-03-21T10:40:18.602Z,63.47
2023-03-21T10:42:50.774Z,63.58
2023-03-21T10:45:23.888Z,63.74
2023-03-21T10:48:01.605Z,63.95
2023-03-21T10:50:33.115Z,63.77
2023-03-21T10:53:04.684Z,63.78
2023-03-21T10:55:42.059Z,63.77
2023-03-21T10:58:25.194Z,63.84
2023-03-21T11:01:02.196Z,63.89
2023-03-21T11:03:39.618Z,63.73
2023-03-21T11:06:16.187Z,63.31
2023-03-21T11:08:51.386Z,62.98
2023-03-21T11:11:27.602Z,62.80
2023-03-21T11:14:07.214Z,62.52
2023-03-21T11:17:27.798Z,62.39
2023-03-21T11:28:17.924Z,62.08
2023-03-21T11:30:58.229Z,61.66
2023-03-21T11:34:06.272Z,61.44
2023-03-21T11:36:40.907Z,61.35
2023-03-21T11:39:32.127Z,61.17
2023-03-21T11:42:03.510Z,61.00
2023-03-21T11:44:42.684Z,61.08
2023-03-21T11:47:14.756Z,60.54
2023-03-21T11:49:55.698Z,59.98
2023-03-21T11:52:45.826Z,59.70
2023-03-21T11:55:43.340Z,59.02
2023-03-21T11:58:28.091Z,58.73
2023-03-21T12:01:04.918Z,58.59
2023-03-21T12:03:56.933Z,58.61
2023-03-21T12:06:36.204Z,58.59
2023-03-21T12:09:18.693Z,58.70
2023-03-21T12:12:03.885Z,58.60
2023-03-21T12:14:48.698Z,58.40
2023-03-21T12:17:31.902Z,58.31
2023-03-21T12:20:22.983Z,58.12
2023-03-21T12:23:06.798Z,58.00
2023-03-21T12:25:46.043Z,58.12
2023-03-21T12:28:33.214Z,57.95
2023-03-21T12:31:12.809Z,57.86
2023-03-21T12:33:58.970Z,57.92
2023-03-21T12:36:45.013Z,57.89
2023-03-21T12:39:30.608Z,57.68
2023-03-21T12:42:07.830Z,57.58
2023-03-21T12:44:44.797Z,57.63
2023-03-21T12:47:21.455Z,57.56
2023-03-21T12:50:02.741Z,57.35
2023-03-21T12:52:38.282Z,57.37
2023-03-21T12:55:19.968Z,57.60
2023-03-21T12:57:57.960Z,57.65
2023-03-21T13:00:35.582Z,57.64
2023-03-21T13:03:13.409Z,57.75
2023-03-21T13:05:58.349Z,57.59
2023-03-21T13:08:35.006Z,57.62
2023-03-21T13:11:12.083Z,57.64
2023-03-21T13:13:49.064Z,57.70
2023-03-21T13:16:27.252Z,57.67
2023-03-21T13:19:04.294Z,57.56
2023-03-21T13:21:46.419Z,57.73
2023-03-21T13:24:33.929Z,57.64
2023-03-21T13:27:11.951Z,57.36
2023-03-21T13:29:52.125Z,57.21
2023-03-21T13:32:30.576Z,57.06
2023-03-21T13:35:05.866Z,56.82
2023-03-21T13:37:51.713Z,56.60
2023-03-21T13:40:29.363Z,56.63
2023-03-21T13:43:03.937Z,56.44
2023-03-21T13:45:46.629Z,56.10
2023-03-21T13:48:31.656Z,56.05
2023-03-21T13:51:07.717Z,55.77
2023-03-21T13:53:43.928Z,55.77
2023-03-21T13:56:25.891Z,55.82
2023-03-21T13:59:11.210Z,55.85
2023-03-21T14:02:02.079Z,55.75
2023-03-21T14:04:42.551Z,55.83
2023-03-21T14:07:28.788Z,55.64
2023-03-21T14:10:05.198Z,55.53
2023-03-21T14:13:02.066Z,55.35
2023-03-21T14:15:43.737Z,55.40
2023-03-21T14:18:35.274Z,55.34
2023-03-21T14:21:24.688Z,55.30
2023-03-21T14:24:13.218Z,55.21
2023-03-21T14:26:47.551Z,55.26
2023-03-21T14:29:27.107Z,55.20
2023-03-21T14:32:00.584Z,55.06
2023-03-21T14:34:36.348Z,54.93
2023-03-21T14:37:13.608Z,54.81
2023-03-21T14:39:44.854Z,55.01
2023-03-21T14:42:17.906Z,55.03
2023-03-21T14:44:55.272Z,55.18
2023-03-21T14:47:29.585Z,55.20
2023-03-21T14:50:02.116Z,54.99
2023-03-21T14:52:35.659Z,54.74
2023-03-21T14:55:16.252Z,54.61
2023-03-21T14:57:48.046Z,54.56
2023-03-21T15:00:24.877Z,54.50
2023-03-21T15:02:58.991Z,54.29
2023-03-21T15:05:33.187Z,54.39
2023-03-21T15:08:09.230Z,54.58
2023-03-21T15:10:40.922Z,54.58
2023-03-21T15:13:20.631Z,54.57
2023-03-21T15:15:52.300Z,54.74
2023-03-21T15:18:27.517Z,54.74
2023-03-21T15:20:58.189Z,54.83
2023-03-21T15:23:32.894Z,54.86
2023-03-21T15:26:07.025Z,54.82
2023-03-21T15:28:38.468Z,54.82
2023-03-21T15:31:22.309Z,54.78
2023-03-21T15:33:55.319Z,54.69
2023-03-21T15:36:32.742Z,54.72
2023-03-21T15:39:14.509Z,54.76
2023-03-21T15:42:00.194Z,54.59
2023-03-21T15:44:31.734Z,54.53
2023-03-21T15:47:03.186Z,54.67
2023-03-21T15:49:41.441Z,54.57
2023-03-21T15:52:17.710Z,54.65
2023-03-21T15:54:57.652Z,54.74
2023-03-21T15:57:33.006Z,54.72
2023-03-21T16:00:18.592Z,54.75
2023-03-21T16:02:49.544Z,54.75
2023-03-21T16:05:28.571Z,54.78
2023-03-21T16:08:24.394Z,54.82
2023-03-21T16:10:55.597Z,54.77
2023-03-21T16:13:26.726Z,54.79
2023-03-21T16:15:57.818Z,54.91
2023-03-21T16:18:30.775Z,55.02
2023-03-21T16:21:02.253Z,55.02
2023-03-21T16:23:34.037Z,55.17
2023-03-21T16:26:05.378Z,55.05
2023-03-21T16:28:39.899Z,55.02
2023-03-21T16:31:15.219Z,55.01
2023-03-21T16:33:46.622Z,55.00
2023-03-21T16:36:20.222Z,55.17
2023-03-21T16:38:53.132Z,55.48
2023-03-21T16:41:25.954Z,55.26
2023-03-21T16:44:01.429Z,55.28
2023-03-21T16:46:32.537Z,55.40
2023-03-21T16:49:04.982Z,55.33
2023-03-21T16:51:39.198Z,55.47
2023-03-21T16:54:13.014Z,55.52
2023-03-21T16:56:46.701Z,55.75
2023-03-21T16:59:18.327Z,55.78
2023-03-21T17:01:56.634Z,55.84
2023-03-21T17:04:30.432Z,55.85
2023-03-21T17:07:03.268Z,56.32
2023-03-21T17:09:34.525Z,56.22
2023-03-21T17:12:10.639Z,56.70
2023-03-21T17:14:42.117Z,56.62
2023-03-21T17:17:27.328Z,56.52
2023-03-21T17:19:58.457Z,56.89
2023-03-21T17:22:32.468Z,56.55
2023-03-21T17:25:04.010Z,56.71
2023-03-21T17:27:35.144Z,56.79
2023-03-21T17:30:13.400Z,56.70
2023-03-21T17:32:44.768Z,56.88
2023-03-21T17:35:16.434Z,57.04
2023-03-21T17:37:50.637Z,57.10
2023-03-21T17:40:25.200Z,57.25
2023-03-21T17:42:58.136Z,57.28
2023-03-21T17:45:29.858Z,57.38
2023-03-21T17:48:01.112Z,57.59
2023-03-21T17:50:37.316Z,57.73
2023-03-21T17:53:09.004Z,58.21
2023-03-21T17:55:40.760Z,57.99
2023-03-21T17:58:13.051Z,58.15
2023-03-21T18:00:46.515Z,58.41
2023-03-21T18:03:18.675Z,58.39
2023-03-21T18:05:51.029Z,58.44
2023-03-21T18:08:22.180Z,58.72
2023-03-21T18:10:54.099Z,58.70
2023-03-21T18:13:25.375Z,58.73
2023-03-21T18:15:59.761Z,58.62
2023-03-21T18:18:31.106Z,58.64
2023-03-21T18:21:02.771Z,58.61
2023-03-21T18:24:10.766Z,58.63
2023-03-21T18:26:48.687Z,58.72
2023-03-21T18:30:25.654Z,58.87
2023-03-21T18:32:41.313Z,58.94
2023-03-21T18:35:17.941Z,59.09
2023-03-21T18:37:49.442Z,59.13
2023-03-21T18:40:24.295Z,59.16
2023-03-21T18:43:49.944Z,59.40
2023-03-21T18:45:47.615Z,59.17
2023-03-21T18:48:19.358Z,59.32
2023-03-21T18:50:51.644Z,59.18
2023-03-21T18:53:23.585Z,59.26
2023-03-21T18:55:54.746Z,59.47
2023-03-21T18:58:29.478Z,59.60
2023-03-21T19:01:04.014Z,59.58
2023-03-21T19:03:37.297Z,59.51
2023-03-21T19:06:11.792Z,59.62
2023-03-21T19:08:43.840Z,59.88
2023-03-21T19:11:15.926Z,59.99
2023-03-21T19:13:47.039Z,60.06
2023-03-21T19:16:18.905Z,60.13
2023-03-21T19:18:58.739Z,60.10
2023-03-21T19:21:30.060Z,60.44
2023-03-21T19:24:26.592Z,60.26
2023-03-21T19:26:52.572Z,60.25
2023-03-21T19:29:26.604Z,60.38
2023-03-21T19:35:37.311Z,60.54
2023-03-21T19:38:08.926Z,60.78
2023-03-21T19:40:42.720Z,60.69
2023-03-21T19:43:32.766Z,60.71
2023-03-21T19:46:04.913Z,60.90
2023-03-21T19:48:38.146Z,60.99
2023-03-21T19:51:28.704Z,61.03
2023-03-21T19:54:01.556Z,61.07
2023-03-21T19:56:34.535Z,61.19
2023-03-21T20:03:27.866Z,61.35
2023-03-21T20:06:06.983Z,61.42
2023-03-21T20:09:05.290Z,61.52
2023-03-21T20:11:30.694Z,61.64
2023-03-21T20:14:03.398Z,61.81
2023-03-21T20:16:37.081Z,61.88
2023-03-21T20:19:10.388Z,61.97
2023-03-21T20:21:49.757Z,62.08
2023-03-21T20:24:26.400Z,62.17
2023-03-21T20:26:59.140Z,62.27
2023-03-21T20:32:24.377Z,62.28
2023-03-21T20:35:07.390Z,62.36
2023-03-21T20:37:51.848Z,62.32
2023-03-21T20:40:24.395Z,62.28
2023-03-21T20:42:59.931Z,62.19
2023-03-21T20:45:32.678Z,62.27
2023-03-21T20:48:29.962Z,62.10
2023-03-21T20:51:39.280Z,62.19
2023-03-21T20:53:58.175Z,62.18
2023-03-21T20:56:30.889Z,62.19
2023-03-21T20:59:17.346Z,62.11
2023-03-21T21:01:55.854Z,62.20
2023-03-21T21:07:27.671Z,62.29
2023-03-21T21:09:58.933Z,62.40
2023-03-21T21:12:30.696Z,62.55
2023-03-21T21:15:02.046Z,62.52
2023-03-21T21:18:01.964Z,62.49
2023-03-21T21:20:25.362Z,62.60
2023-03-21T21:23:00.159Z,62.48
2023-03-21T21:25:34.920Z,62.50
2023-03-21T21:28:09.679Z,62.59
2023-03-21T21:30:42.847Z,62.64
2023-03-21T21:33:15.425Z,62.60
2023-03-21T21:35:48.737Z,62.78
2023-03-21T21:38:21.967Z,62.76
2023-03-21T21:40:54.491Z,62.94
2023-03-21T21:43:25.850Z,63.14
2023-03-21T21:45:58.357Z,63.12
2023-03-21T21:48:29.564Z,63.22
2023-03-21T21:51:02.579Z,63.28
2023-03-21T21:53:33.929Z,63.22
2023-03-21T21:56:06.456Z,63.21
2023-03-21T21:58:39.286Z,63.36
2023-03-21T22:01:10.938Z,63.51
2023-03-21T22:03:46.375Z,63.44
2023-03-21T22:06:17.755Z,63.83
2023-03-21T22:08:51.973Z,63.72
2023-03-21T22:11:24.298Z,63.78
2023-03-21T22:13:56.113Z,63.65
2023-03-21T22:16:27.255Z,63.57
2023-03-21T22:18:58.351Z,63.88
2023-03-21T22:21:29.300Z,63.86
2023-03-21T22:24:00.233Z,63.89
2023-03-21T22:26:33.692Z,63.97
2023-03-21T22:29:08.458Z,64.16
2023-03-21T22:31:41.992Z,64.13
2023-03-21T22:34:12.994Z,64.24
2023-03-21T22:36:50.540Z,64.23
2023-03-21T22:39:26.242Z,64.38
2023-03-21T22:42:01.008Z,64.36
2023-03-21T22:44:35.020Z,64.46
2023-03-21T22:47:08.075Z,64.47
2023-03-21T22:49:39.994Z,64.61
2023-03-21T22:52:11.295Z,64.48
2023-03-21T22:54:42.541Z,64.69
2023-03-21T22:57:14.249Z,64.64
2023-03-21T22:59:45.366Z,64.88
2023-03-21T23:02:16.383Z,64.71
2023-03-21T23:04:47.491Z,64.87
2023-03-21T23:07:20.669Z,64.91
2023-03-21T23:09:51.928Z,65.01
2023-03-21T23:12:22.833Z,64.98
2023-03-21T23:14:53.826Z,65.27
2023-03-21T23:17:25.057Z,65.28
2023-03-21T23:19:55.965Z,65.40
2023-03-21T23:22:31.005Z,65.19
2023-03-21T23:25:02.633Z,65.23
2023-03-21T23:27:35.696Z,65.17
2023-03-21T23:30:08.123Z,65.11
2023-03-21T23:32:39.156Z,65.30
2023-03-21T23:35:11.990Z,65.28
2023-03-21T23:37:52.440Z,65.44
2023-03-21T23:40:23.826Z,65.39
2023-03-21T23:42:54.813Z,65.44
2023-03-21T23:45:25.793Z,65.47
2023-03-21T23:47:56.831Z,65.45
2023-03-21T23:50:27.766Z,65.44
2023-03-21T23:52:58.665Z,65.64
2023-03-21T23:55:29.853Z,65.81
2023-03-21T23:58:00.761Z,65.80
